Metar z połowy godziny Komunikat METAR ze strony awiacja.imgw.pl Metar G30 EPPO METAR EPPO 190230Z 22004KT CAVOK 17/12 Q1019 =